createdAt,value
2022-12-16T00:02:01.348Z,9.10
2022-12-16T00:04:28.089Z,7.60
2022-12-16T00:06:54.951Z,9.18
2022-12-16T00:09:21.556Z,7.95
2022-12-16T00:11:48.004Z,9.82
2022-12-16T00:14:14.549Z,9.98
2022-12-16T00:16:41.254Z,10.77
2022-12-16T00:19:07.897Z,9.32
2022-12-16T00:21:34.988Z,9.30
2022-12-16T00:24:01.425Z,9.88
2022-12-16T00:26:27.890Z,8.30
2022-12-16T00:28:54.803Z,9.68
2022-12-16T00:31:21.427Z,10.52
2022-12-16T00:33:48.030Z,8.93
2022-12-16T00:36:14.541Z,9.05
2022-12-16T00:38:41.022Z,8.88
2022-12-16T00:41:07.628Z,10.65
2022-12-16T00:43:34.837Z,9.27
2022-12-16T00:46:01.610Z,10.05
2022-12-16T00:48:28.201Z,10.52
2022-12-16T00:50:55.646Z,8.98
2022-12-16T00:53:24.174Z,9.10
2022-12-16T00:55:51.694Z,10.35
2022-12-16T00:58:18.601Z,10.23
2022-12-16T01:00:45.145Z,11.90
2022-12-16T01:03:15.441Z,10.57
2022-12-16T01:05:44.522Z,8.90
2022-12-16T01:08:11.052Z,10.63
2022-12-16T01:10:37.480Z,10.75
2022-12-16T01:13:04.266Z,9.95
2022-12-16T01:15:30.762Z,10.88
2022-12-16T01:17:57.249Z,8.02
2022-12-16T01:20:23.959Z,9.38
2022-12-16T01:22:50.571Z,10.30
2022-12-16T01:25:17.173Z,8.30
2022-12-16T01:27:43.732Z,9.27
2022-12-16T01:30:10.983Z,9.07
2022-12-16T01:32:37.928Z,10.20
2022-12-16T01:35:14.112Z,10.32
2022-12-16T01:37:50.211Z,10.63
2022-12-16T01:40:20.548Z,10.23
2022-12-16T01:42:47.112Z,8.63
2022-12-16T01:45:33.552Z,10.18
2022-12-16T01:48:35.604Z,8.38
2022-12-16T01:51:08.214Z,8.00
2022-12-16T01:53:37.298Z,10.15
2022-12-16T01:56:03.993Z,8.77
2022-12-16T01:58:34.794Z,7.70
2022-12-16T02:01:01.900Z,8.63
2022-12-16T02:03:33.753Z,9.43
2022-12-16T02:06:02.078Z,9.15
2022-12-16T02:10:57.863Z,7.93
2022-12-16T02:13:42.473Z,7.50
2022-12-16T02:16:18.217Z,6.25
2022-12-16T02:19:15.373Z,7.60
2022-12-16T02:22:06.842Z,7.60
2022-12-16T02:24:51.443Z,9.15
2022-12-16T02:28:03.489Z,8.38
2022-12-16T02:30:51.367Z,7.47
2022-12-16T02:33:43.551Z,9.80
2022-12-16T02:36:33.332Z,8.55
2022-12-16T02:39:01.601Z,8.20
2022-12-16T02:41:42.054Z,8.40
2022-12-16T02:44:10.740Z,7.75
2022-12-16T02:46:57.460Z,9.48
2022-12-16T02:49:24.087Z,7.47
2022-12-16T02:51:50.660Z,9.98
2022-12-16T02:54:18.145Z,7.95
2022-12-16T02:57:24.473Z,7.65
2022-12-16T02:59:56.845Z,9.00
2022-12-16T03:02:53.531Z,8.40
2022-12-16T03:05:28.506Z,7.97
2022-12-16T03:07:59.104Z,8.65
2022-12-16T03:10:30.448Z,8.55
2022-12-16T03:13:00.106Z,10.95
2022-12-16T03:15:30.327Z,8.88
2022-12-16T03:17:57.993Z,8.63
2022-12-16T03:20:24.700Z,9.13
2022-12-16T03:22:54.104Z,8.90
2022-12-16T03:25:21.430Z,9.98
2022-12-16T03:28:13.541Z,11.13
2022-12-16T03:30:46.513Z,10.95
2022-12-16T03:33:24.635Z,12.13
2022-12-16T03:36:00.014Z,11.50
2022-12-16T03:38:27.954Z,12.05
2022-12-16T03:40:57.038Z,9.55
2022-12-16T03:43:24.816Z,9.75
2022-12-16T03:45:56.823Z,10.00
2022-12-16T03:48:25.736Z,10.05
2022-12-16T03:50:52.309Z,10.40
2022-12-16T03:53:18.897Z,10.65
2022-12-16T03:55:45.571Z,10.98
2022-12-16T03:58:12.011Z,12.75
2022-12-16T04:00:38.459Z,11.50
2022-12-16T04:03:05.264Z,14.07
2022-12-16T04:05:31.967Z,11.65
2022-12-16T04:08:01.798Z,11.30
2022-12-16T04:10:29.150Z,12.80
2022-12-16T04:12:55.624Z,12.43
2022-12-16T04:15:22.293Z,14.27
2022-12-16T04:17:48.845Z,12.13
2022-12-16T04:20:17.831Z,12.15
2022-12-16T04:22:44.511Z,12.57
2022-12-16T04:25:15.356Z,14.75
2022-12-16T04:27:42.229Z,15.18
2022-12-16T04:30:09.484Z,13.70
2022-12-16T04:32:36.018Z,14.43
2022-12-16T04:35:02.560Z,16.55
2022-12-16T04:37:29.062Z,17.67
2022-12-16T04:39:55.624Z,16.02
2022-12-16T04:42:22.277Z,15.70
2022-12-16T04:44:48.884Z,13.77
2022-12-16T04:47:15.328Z,16.27
2022-12-16T04:49:41.909Z,14.13
2022-12-16T04:52:08.361Z,15.48
2022-12-16T04:54:34.886Z,17.60
2022-12-16T04:57:01.405Z,17.40
2022-12-16T04:59:27.926Z,17.27
2022-12-16T05:01:54.525Z,19.90
2022-12-16T05:04:21.202Z,14.45
2022-12-16T05:06:47.696Z,18.15
2022-12-16T05:09:14.328Z,18.65
2022-12-16T05:11:40.985Z,19.10
2022-12-16T05:14:07.465Z,15.93
2022-12-16T05:16:34.178Z,15.80
2022-12-16T05:19:00.737Z,17.05
2022-12-16T05:21:27.406Z,15.88
2022-12-16T05:23:54.226Z,16.08
2022-12-16T05:26:20.863Z,16.08
2022-12-16T05:28:47.337Z,17.17
2022-12-16T05:31:14.076Z,18.08
2022-12-16T05:33:40.834Z,18.85
2022-12-16T05:36:08.187Z,18.30
2022-12-16T05:38:34.798Z,18.52
2022-12-16T05:41:01.296Z,19.38
2022-12-16T05:43:27.771Z,18.70
2022-12-16T05:45:54.443Z,18.15
2022-12-16T05:48:20.937Z,18.95
2022-12-16T05:50:47.402Z,17.13
2022-12-16T05:53:13.913Z,15.02
2022-12-16T05:55:41.920Z,20.83
2022-12-16T05:58:08.870Z,18.30
2022-12-16T06:00:36.338Z,16.73
2022-12-16T06:03:02.860Z,16.08
2022-12-16T06:05:29.473Z,17.02
2022-12-16T06:07:56.040Z,16.00
2022-12-16T06:10:22.672Z,15.90
2022-12-16T06:12:49.245Z,19.98
2022-12-16T06:15:15.777Z,17.77
2022-12-16T06:17:51.422Z,16.88
2022-12-16T06:20:18.075Z,19.42
2022-12-16T06:22:51.112Z,17.38
2022-12-16T06:25:17.901Z,17.13
2022-12-16T06:27:50.645Z,16.33
2022-12-16T06:30:17.141Z,16.00
2022-12-16T06:32:43.591Z,15.55
2022-12-16T06:35:10.107Z,14.63
2022-12-16T06:37:36.910Z,16.30
2022-12-16T06:40:03.710Z,15.40
2022-12-16T06:42:30.254Z,16.45
2022-12-16T06:44:56.768Z,15.30
2022-12-16T06:47:23.318Z,14.18
2022-12-16T06:49:50.001Z,16.40
2022-12-16T06:52:16.628Z,16.48
2022-12-16T06:54:43.227Z,19.00
2022-12-16T06:57:09.715Z,17.48
2022-12-16T06:59:36.235Z,15.85
2022-12-16T07:02:03.952Z,16.60
2022-12-16T07:04:30.649Z,16.05
2022-12-16T07:06:57.274Z,17.60
2022-12-16T07:09:23.827Z,15.85
2022-12-16T07:11:50.293Z,19.25
2022-12-16T07:14:16.742Z,19.20
2022-12-16T07:16:43.415Z,19.60
2022-12-16T07:19:09.964Z,20.58
2022-12-16T07:21:36.729Z,17.90
2022-12-16T07:24:04.195Z,17.42
2022-12-16T07:26:30.690Z,20.38
2022-12-16T07:28:57.257Z,18.70
2022-12-16T07:31:23.818Z,17.80
2022-12-16T07:33:50.323Z,21.85
2022-12-16T07:36:16.876Z,17.60
2022-12-16T07:38:43.561Z,21.08
2022-12-16T07:41:10.293Z,20.52
2022-12-16T07:43:36.842Z,21.90
2022-12-16T07:46:03.606Z,20.25
2022-12-16T07:48:30.113Z,23.52
2022-12-16T07:50:56.775Z,22.60
2022-12-16T07:53:25.643Z,24.38
2022-12-16T07:55:56.084Z,22.30
2022-12-16T07:58:22.761Z,23.05
2022-12-16T08:00:49.279Z,21.27
2022-12-16T08:03:16.030Z,25.02
2022-12-16T08:05:42.524Z,22.02
2022-12-16T08:08:09.056Z,22.90
2022-12-16T08:10:35.765Z,24.25
2022-12-16T08:13:04.263Z,21.10
2022-12-16T08:15:31.057Z,22.92
2022-12-16T08:17:57.547Z,20.83
2022-12-16T08:20:24.164Z,22.20
2022-12-16T08:22:50.627Z,23.60
2022-12-16T08:25:17.928Z,23.98
2022-12-16T08:27:44.455Z,27.08
2022-12-16T08:30:11.482Z,25.48
2022-12-16T08:32:38.058Z,23.20
2022-12-16T08:35:05.109Z,21.45
2022-12-16T08:37:31.574Z,18.05
2022-12-16T08:40:25.585Z,23.83
2022-12-16T08:42:44.801Z,23.85
2022-12-16T08:45:11.345Z,21.08
2022-12-16T08:47:37.854Z,20.98
2022-12-16T08:50:05.439Z,22.15
2022-12-16T08:52:31.920Z,19.08
2022-12-16T08:54:58.502Z,19.83
2022-12-16T08:57:24.958Z,23.80
2022-12-16T08:59:51.449Z,19.45
2022-12-16T09:02:18.565Z,21.17
2022-12-16T09:04:45.594Z,18.45
2022-12-16T09:07:12.176Z,21.75
2022-12-16T09:09:38.675Z,24.35
2022-12-16T09:12:05.414Z,22.20
2022-12-16T09:14:31.919Z,19.48
2022-12-16T09:16:58.485Z,21.00
2022-12-16T09:19:25.019Z,19.08
2022-12-16T09:21:51.715Z,23.63
2022-12-16T09:24:18.291Z,21.92
2022-12-16T09:26:44.909Z,19.77
2022-12-16T09:29:11.507Z,19.20
2022-12-16T09:31:38.166Z,20.70
2022-12-16T09:34:04.863Z,21.80
2022-12-16T09:36:31.416Z,22.50
2022-12-16T09:38:57.851Z,23.85
2022-12-16T09:41:39.795Z,19.58
2022-12-16T09:44:32.386Z,22.40
2022-12-16T09:47:18.279Z,21.20
2022-12-16T09:49:52.555Z,19.52
2022-12-16T09:52:21.268Z,18.25
2022-12-16T09:54:48.076Z,24.08
2022-12-16T09:57:15.537Z,23.73
2022-12-16T09:59:50.098Z,21.05
2022-12-16T10:02:19.182Z,19.27
2022-12-16T10:04:52.124Z,23.13
2022-12-16T10:07:21.015Z,20.52
2022-12-16T10:10:06.361Z,20.65
2022-12-16T10:13:06.571Z,21.13
2022-12-16T10:15:59.524Z,18.55
2022-12-16T10:18:39.415Z,20.63
2022-12-16T10:21:09.755Z,18.23
2022-12-16T10:24:01.971Z,19.73
2022-12-16T10:26:57.339Z,18.38
2022-12-16T10:29:28.218Z,17.60
2022-12-16T10:31:54.995Z,20.98
2022-12-16T10:34:28.631Z,18.23
2022-12-16T10:36:55.457Z,18.67
2022-12-16T10:39:32.212Z,22.15
2022-12-16T10:42:01.766Z,22.60
2022-12-16T10:44:55.731Z,23.50
2022-12-16T10:47:22.539Z,21.20
2022-12-16T10:49:55.004Z,22.75
2022-12-16T10:52:21.672Z,20.73
2022-12-16T10:55:11.292Z,22.70
2022-12-16T10:58:03.568Z,25.08
2022-12-16T11:00:46.217Z,21.10
2022-12-16T11:03:23.418Z,19.65
2022-12-16T11:05:50.410Z,22.27
2022-12-16T11:08:32.660Z,20.10
2022-12-16T11:11:12.972Z,20.17
2022-12-16T11:13:42.131Z,20.08
2022-12-16T11:16:14.335Z,17.73
2022-12-16T11:18:50.110Z,22.92
2022-12-16T11:21:21.887Z,18.23
2022-12-16T11:24:04.983Z,19.48
2022-12-16T11:26:36.417Z,17.42
2022-12-16T11:29:11.186Z,18.75
2022-12-16T11:31:37.867Z,17.85
2022-12-16T11:34:05.211Z,21.75
2022-12-16T11:36:34.098Z,21.02
2022-12-16T11:39:01.984Z,20.20
2022-12-16T11:41:33.844Z,19.10
2022-12-16T11:44:02.250Z,22.83
2022-12-16T11:46:29.243Z,19.90
2022-12-16T11:49:04.954Z,20.73
2022-12-16T11:51:34.640Z,20.95
2022-12-16T11:54:21.055Z,18.75
2022-12-16T11:56:49.521Z,18.80
2022-12-16T11:59:30.656Z,20.83
2022-12-16T12:02:01.308Z,19.83
2022-12-16T12:04:28.048Z,18.50
2022-12-16T12:07:37.421Z,18.50
2022-12-16T12:10:20.489Z,18.67
2022-12-16T12:12:59.027Z,19.90
2022-12-16T12:15:40.841Z,21.58
2022-12-16T12:18:45.243Z,17.65
2022-12-16T12:21:22.586Z,21.25
2022-12-16T12:23:58.080Z,21.42
2022-12-16T12:26:33.434Z,21.88
2022-12-16T12:29:26.490Z,18.50
2022-12-16T12:31:58.502Z,19.25
2022-12-16T12:34:45.660Z,18.75
2022-12-16T12:37:27.593Z,19.70
2022-12-16T12:40:07.450Z,17.73
2022-12-16T12:42:51.647Z,18.58
2022-12-16T12:45:59.008Z,22.25
2022-12-16T12:48:53.035Z,21.02
2022-12-16T12:51:33.597Z,19.73
2022-12-16T12:54:11.860Z,20.30
2022-12-16T12:56:53.316Z,17.48
2022-12-16T12:59:28.684Z,18.10
2022-12-16T13:01:57.047Z,17.42
2022-12-16T13:04:24.366Z,19.23
2022-12-16T13:06:52.394Z,19.47
2022-12-16T13:09:37.580Z,26.88
2022-12-16T13:12:06.879Z,20.58
2022-12-16T13:14:33.342Z,20.25
2022-12-16T13:16:59.981Z,20.48
2022-12-16T13:19:28.994Z,22.88
2022-12-16T13:21:56.418Z,21.10
2022-12-16T13:27:01.864Z,18.55
2022-12-16T13:29:31.274Z,18.90
2022-12-16T13:32:02.598Z,16.75
2022-12-16T13:34:29.278Z,17.30
2022-12-16T13:36:58.152Z,18.27
2022-12-16T13:39:30.165Z,19.00
2022-12-16T13:42:00.417Z,17.48
2022-12-16T13:44:42.146Z,17.63
2022-12-16T13:47:31.167Z,18.05
2022-12-16T13:49:57.853Z,18.10
2022-12-16T13:52:33.046Z,17.92
2022-12-16T13:55:10.975Z,18.45
2022-12-16T13:57:42.262Z,17.73
2022-12-16T14:00:28.852Z,17.85
2022-12-16T14:02:58.524Z,17.98
2022-12-16T14:05:30.162Z,16.42
2022-12-16T14:07:57.878Z,17.88
2022-12-16T14:10:32.447Z,17.92
2022-12-16T14:13:06.292Z,19.38
2022-12-16T14:15:40.267Z,16.42
2022-12-16T14:18:19.137Z,16.70
2022-12-16T14:20:58.988Z,17.65
2022-12-16T14:23:56.258Z,17.40
2022-12-16T14:26:23.901Z,16.25
2022-12-16T14:28:50.455Z,15.57
2022-12-16T14:31:41.286Z,16.42
2022-12-16T14:34:17.778Z,16.85
2022-12-16T14:36:45.470Z,16.98
2022-12-16T14:39:20.052Z,17.33
2022-12-16T14:41:51.030Z,16.55
2022-12-16T14:44:20.702Z,16.48
2022-12-16T14:46:53.105Z,14.85
2022-12-16T14:49:28.535Z,18.20
2022-12-16T14:51:54.998Z,18.20
2022-12-16T14:54:27.329Z,16.38
2022-12-16T14:56:57.624Z,15.95
2022-12-16T14:59:24.166Z,15.57
2022-12-16T15:01:53.360Z,15.43
2022-12-16T15:04:21.083Z,15.00
2022-12-16T15:06:52.877Z,14.00
2022-12-16T15:09:27.515Z,15.35
2022-12-16T15:11:55.689Z,15.00
2022-12-16T15:14:29.274Z,18.08
2022-12-16T15:16:57.194Z,15.38
2022-12-16T15:21:50.529Z,13.63
2022-12-16T15:24:20.667Z,16.35
2022-12-16T15:26:47.187Z,13.82
2022-12-16T15:29:36.535Z,16.13
2022-12-16T15:32:25.183Z,14.52
2022-12-16T15:34:51.690Z,14.43
2022-12-16T15:37:20.281Z,15.48
2022-12-16T15:39:46.950Z,15.15
2022-12-16T15:42:27.886Z,17.40
2022-12-16T15:44:54.448Z,16.05
2022-12-16T15:47:39.108Z,16.98
2022-12-16T15:50:06.681Z,14.65
2022-12-16T15:52:39.249Z,16.05
2022-12-16T15:55:22.381Z,14.93
2022-12-16T15:57:58.376Z,15.80
2022-12-16T16:00:27.737Z,14.93
2022-12-16T16:02:54.431Z,16.92
2022-12-16T16:05:24.753Z,15.50
2022-12-16T16:07:51.382Z,16.05
2022-12-16T16:10:23.629Z,14.70
2022-12-16T16:12:50.198Z,16.30
2022-12-16T16:15:16.703Z,17.48
2022-12-16T16:17:43.657Z,14.82
2022-12-16T16:20:14.897Z,17.00
2022-12-16T16:22:41.385Z,14.50
2022-12-16T16:25:11.576Z,14.82
2022-12-16T16:27:38.056Z,16.10
2022-12-16T16:30:05.157Z,14.68
2022-12-16T16:32:31.714Z,14.45
2022-12-16T16:34:58.187Z,13.90
2022-12-16T16:37:24.741Z,13.93
2022-12-16T16:39:51.364Z,12.85
2022-12-16T16:42:18.054Z,13.65
2022-12-16T16:44:44.599Z,13.55
2022-12-16T16:47:16.760Z,15.32
2022-12-16T16:49:46.567Z,15.60
2022-12-16T16:52:15.940Z,13.35
2022-12-16T16:54:42.515Z,14.75
2022-12-16T16:57:10.067Z,15.10
2022-12-16T16:59:36.604Z,13.90
2022-12-16T17:02:03.120Z,14.40
2022-12-16T17:04:29.733Z,13.65
2022-12-16T17:06:56.315Z,13.48
2022-12-16T17:09:25.536Z,15.30
2022-12-16T17:11:53.910Z,13.38
2022-12-16T17:14:21.378Z,11.80
2022-12-16T17:16:48.011Z,12.45
2022-12-16T17:19:14.500Z,13.27
2022-12-16T17:21:41.113Z,11.25
2022-12-16T17:24:07.638Z,14.88
2022-12-16T17:26:34.521Z,15.93
2022-12-16T17:29:01.019Z,14.60
2022-12-16T17:31:27.673Z,11.80
2022-12-16T17:33:54.206Z,12.98
2022-12-16T17:36:20.772Z,14.30
2022-12-16T17:38:48.563Z,12.98
2022-12-16T17:41:15.059Z,15.45
2022-12-16T17:43:41.644Z,12.95
2022-12-16T17:46:10.955Z,12.40
2022-12-16T17:48:41.436Z,14.80
2022-12-16T17:51:10.649Z,15.68
2022-12-16T17:53:37.330Z,13.93
2022-12-16T17:56:05.119Z,15.48
2022-12-16T17:58:37.996Z,11.65
2022-12-16T18:01:06.542Z,12.82
2022-12-16T18:03:33.734Z,14.20
2022-12-16T18:06:00.594Z,13.65
2022-12-16T18:08:27.148Z,13.20
2022-12-16T18:10:57.940Z,14.55
2022-12-16T18:13:24.384Z,14.00
2022-12-16T18:15:52.044Z,15.85
2022-12-16T18:21:31.606Z,13.90
2022-12-16T18:24:06.707Z,15.85
2022-12-16T18:26:33.182Z,14.65
2022-12-16T18:28:59.701Z,12.90
2022-12-16T18:31:26.389Z,15.88
2022-12-16T18:33:52.972Z,14.38
2022-12-16T18:36:19.544Z,12.63
2022-12-16T18:38:46.152Z,15.27
2022-12-16T18:41:18.804Z,12.77
2022-12-16T18:43:45.388Z,15.25
2022-12-16T18:46:11.884Z,14.45
2022-12-16T18:48:39.182Z,12.85
2022-12-16T18:51:05.844Z,12.97
2022-12-16T18:53:32.876Z,14.30
2022-12-16T18:56:08.245Z,14.48
2022-12-16T18:58:50.771Z,13.05
2022-12-16T19:01:18.002Z,14.98
2022-12-16T19:03:44.540Z,13.30
2022-12-16T19:06:11.019Z,14.77
2022-12-16T19:08:37.628Z,14.90
2022-12-16T19:11:04.181Z,13.90
2022-12-16T19:13:30.662Z,14.93
2022-12-16T19:15:57.989Z,14.23
2022-12-16T19:18:27.514Z,13.13
2022-12-16T19:20:57.374Z,14.65
2022-12-16T19:23:23.945Z,14.77
2022-12-16T19:26:00.177Z,13.50
2022-12-16T19:28:26.788Z,15.88
2022-12-16T19:30:56.924Z,13.27
2022-12-16T19:33:23.459Z,16.50
2022-12-16T19:35:49.999Z,14.23
2022-12-16T19:38:16.500Z,14.73
2022-12-16T19:40:54.871Z,14.95
2022-12-16T19:43:23.213Z,14.77
2022-12-16T19:45:56.376Z,13.70
2022-12-16T19:48:23.202Z,13.82
2022-12-16T19:50:57.989Z,13.10
2022-12-16T19:53:24.444Z,16.85
2022-12-16T19:56:00.971Z,13.00
2022-12-16T19:58:27.507Z,13.88
2022-12-16T20:00:54.018Z,14.52
2022-12-16T20:03:20.639Z,12.57
2022-12-16T20:05:47.183Z,13.35
2022-12-16T20:08:14.630Z,13.52
2022-12-16T20:10:41.183Z,16.23
2022-12-16T20:13:09.753Z,14.63
2022-12-16T20:15:36.275Z,14.38
2022-12-16T20:18:06.044Z,13.43
2022-12-16T20:20:32.615Z,15.05
2022-12-16T20:22:59.287Z,12.70
2022-12-16T20:25:26.394Z,12.75
2022-12-16T20:27:52.919Z,14.03
2022-12-16T20:30:19.913Z,14.93
2022-12-16T20:32:47.355Z,13.20
2022-12-16T20:35:14.226Z,17.15
2022-12-16T20:37:40.772Z,17.35
2022-12-16T20:40:07.806Z,14.20
2022-12-16T20:42:34.471Z,16.80
2022-12-16T20:45:00.939Z,15.13
2022-12-16T20:47:27.418Z,14.48
2022-12-16T20:49:53.889Z,13.85
2022-12-16T20:52:22.768Z,14.73
2022-12-16T20:54:49.280Z,13.70
2022-12-16T20:57:15.777Z,13.07
2022-12-16T20:59:42.335Z,14.38
2022-12-16T21:02:26.821Z,14.93
2022-12-16T21:04:56.865Z,13.80
2022-12-16T21:07:23.443Z,14.10
2022-12-16T21:09:49.976Z,13.38
2022-12-16T21:12:16.766Z,14.85
2022-12-16T21:14:43.322Z,13.48
2022-12-16T21:17:09.920Z,12.07
2022-12-16T21:19:36.438Z,16.05
2022-12-16T21:22:02.956Z,13.68
2022-12-16T21:24:29.506Z,14.95
2022-12-16T21:26:56.322Z,14.60
2022-12-16T21:29:22.817Z,16.60
2022-12-16T21:31:50.257Z,15.82
2022-12-16T21:34:16.885Z,16.80
2022-12-16T21:36:43.648Z,15.38
2022-12-16T21:39:10.096Z,15.90
2022-12-16T21:41:36.666Z,13.07
2022-12-16T21:44:03.132Z,12.70
2022-12-16T21:46:29.701Z,12.98
2022-12-16T21:48:56.374Z,13.57
2022-12-16T21:51:23.290Z,13.40
2022-12-16T21:53:53.481Z,12.48
2022-12-16T21:56:20.201Z,13.82
2022-12-16T21:58:46.772Z,14.82
2022-12-16T22:01:13.425Z,13.48
2022-12-16T22:03:40.858Z,13.70
2022-12-16T22:06:07.739Z,14.52
2022-12-16T22:08:34.273Z,15.90
2022-12-16T22:11:08.795Z,15.00
2022-12-16T22:13:36.465Z,14.45
2022-12-16T22:16:06.126Z,15.52
2022-12-16T22:18:32.615Z,15.48
2022-12-16T22:21:01.611Z,13.00
2022-12-16T22:23:29.393Z,13.23
2022-12-16T22:26:00.662Z,13.10
2022-12-16T22:28:27.143Z,15.80
2022-12-16T22:33:41.642Z,13.57
2022-12-16T22:36:10.151Z,15.13
2022-12-16T22:38:36.705Z,13.18
2022-12-16T22:41:03.463Z,17.17
2022-12-16T22:43:31.201Z,15.18
2022-12-16T22:45:59.813Z,12.63
2022-12-16T22:48:27.297Z,13.88
2022-12-16T22:50:53.734Z,16.73
2022-12-16T22:53:22.910Z,15.27
2022-12-16T22:56:01.684Z,14.43
2022-12-16T22:58:28.556Z,14.88
2022-12-16T23:03:43.041Z,13.75
2022-12-16T23:06:10.689Z,12.90
2022-12-16T23:08:37.218Z,17.58
2022-12-16T23:11:03.796Z,14.77
2022-12-16T23:13:30.264Z,14.48
2022-12-16T23:15:56.935Z,14.25
2022-12-16T23:18:23.566Z,16.65
2022-12-16T23:20:51.639Z,16.05
2022-12-16T23:23:18.682Z,15.18
2022-12-16T23:25:58.464Z,15.57
2022-12-16T23:28:25.121Z,14.73
2022-12-16T23:30:53.759Z,16.13
2022-12-16T23:33:20.422Z,15.15
2022-12-16T23:35:47.670Z,14.68
2022-12-16T23:38:14.181Z,15.70
2022-12-16T23:40:40.815Z,15.32
2022-12-16T23:43:07.492Z,15.82
2022-12-16T23:45:34.217Z,15.73
2022-12-16T23:48:09.935Z,16.42
2022-12-16T23:50:36.406Z,15.15
2022-12-16T23:53:04.581Z,14.35
2022-12-16T23:55:31.220Z,13.63
2022-12-16T23:58:01.512Z,13.93
